createdAt,value
2023-05-18T00:00:25.058Z,1012.3
2023-05-18T00:01:41.184Z,1012.3
2023-05-18T00:02:57.329Z,1012.3
2023-05-18T00:04:13.445Z,1012.3
2023-05-18T00:05:29.582Z,1012.3
2023-05-18T00:06:45.743Z,1012.3
2023-05-18T00:08:01.873Z,1012.3
2023-05-18T00:09:18.001Z,1012.3
2023-05-18T00:10:34.131Z,1012.3
2023-05-18T00:11:50.266Z,1012.3
2023-05-18T00:13:06.418Z,1012.2
2023-05-18T00:14:22.541Z,1012.2
2023-05-18T00:15:38.676Z,1012.2
2023-05-18T00:16:54.806Z,1012.2
2023-05-18T00:18:10.954Z,1012.2
2023-05-18T00:19:27.083Z,1012.2
2023-05-18T00:20:43.229Z,1012.2
2023-05-18T00:21:59.367Z,1012.3
2023-05-18T00:23:15.500Z,1012.3
2023-05-18T00:24:31.625Z,1012.2
2023-05-18T00:25:47.764Z,1012.3
2023-05-18T00:27:03.897Z,1012.3
2023-05-18T00:28:20.042Z,1012.3
2023-05-18T00:29:36.165Z,1012.4
2023-05-18T00:30:52.312Z,1012.4
2023-05-18T00:32:08.518Z,1012.4
2023-05-18T00:33:23.752Z,1012.4
2023-05-18T00:34:38.960Z,1012.4
2023-05-18T00:35:55.109Z,1012.5
2023-05-18T00:37:11.227Z,1012.5
2023-05-18T00:38:27.368Z,1012.5
2023-05-18T00:39:43.504Z,1012.5
2023-05-18T00:40:59.623Z,1012.5
2023-05-18T00:42:15.774Z,1012.5
2023-05-18T00:43:31.904Z,1012.5
2023-05-18T00:44:48.039Z,1012.5
2023-05-18T00:46:04.167Z,1012.5
2023-05-18T00:47:20.309Z,1012.5
2023-05-18T00:48:36.451Z,1012.5
2023-05-18T00:49:52.592Z,1012.5
2023-05-18T00:51:08.723Z,1012.5
2023-05-18T00:52:24.860Z,1012.5
2023-05-18T00:53:40.994Z,1012.5
2023-05-18T00:54:57.143Z,1012.5
2023-05-18T00:56:13.275Z,1012.5
2023-05-18T00:57:29.407Z,1012.5
2023-05-18T00:58:45.538Z,1012.5
2023-05-18T01:00:01.676Z,1012.5
2023-05-18T01:01:17.813Z,1012.5
2023-05-18T01:02:33.939Z,1012.5
2023-05-18T01:03:50.078Z,1012.5
2023-05-18T01:05:06.216Z,1012.5
2023-05-18T01:06:22.401Z,1012.5
2023-05-18T01:07:37.649Z,1012.5
2023-05-18T01:08:52.846Z,1012.5
2023-05-18T01:10:07.998Z,1012.5
2023-05-18T01:11:24.140Z,1012.5
2023-05-18T01:12:40.272Z,1012.5
2023-05-18T01:13:56.408Z,1012.5
2023-05-18T01:15:12.535Z,1012.5
2023-05-18T01:16:28.680Z,1012.5
2023-05-18T01:17:44.000Z,1012.5
2023-05-18T01:19:00.954Z,1012.5
2023-05-18T01:20:17.081Z,1012.5
2023-05-18T01:21:33.208Z,1012.5
2023-05-18T01:22:49.371Z,1012.5
2023-05-18T01:24:05.506Z,1012.6
2023-05-18T01:25:21.633Z,1012.5
2023-05-18T01:26:37.763Z,1012.5
2023-05-18T01:27:53.895Z,1012.5
2023-05-18T01:29:10.052Z,1012.5
2023-05-18T01:30:26.181Z,1012.5
2023-05-18T01:31:42.314Z,1012.6
2023-05-18T01:32:58.439Z,1012.6
2023-05-18T01:34:14.568Z,1012.6
2023-05-18T01:35:30.728Z,1012.6
2023-05-18T01:36:46.855Z,1012.6
2023-05-18T01:38:02.998Z,1012.7
2023-05-18T01:39:19.115Z,1012.7
2023-05-18T01:40:35.000Z,1012.6
2023-05-18T01:41:51.411Z,1012.7
2023-05-18T01:43:07.531Z,1012.6
2023-05-18T01:44:23.676Z,1012.7
2023-05-18T01:45:39.802Z,1012.7
2023-05-18T01:46:55.939Z,1012.7
2023-05-18T01:48:12.081Z,1012.7
2023-05-18T01:49:28.211Z,1012.7
2023-05-18T01:50:44.360Z,1012.7
2023-05-18T01:52:00.475Z,1012.7
2023-05-18T01:53:16.608Z,1012.7
2023-05-18T01:54:32.771Z,1012.7
2023-05-18T01:55:48.899Z,1012.6
2023-05-18T01:57:05.085Z,1012.7
2023-05-18T01:58:20.332Z,1012.7
2023-05-18T01:59:35.542Z,1012.7
2023-05-18T02:00:51.673Z,1012.7
2023-05-18T02:02:07.807Z,1012.7
2023-05-18T02:03:23.933Z,1012.7
2023-05-18T02:04:40.080Z,1012.7
2023-05-18T02:05:56.208Z,1012.8
2023-05-18T02:07:12.347Z,1012.8
2023-05-18T02:08:28.483Z,1012.8
2023-05-18T02:09:44.609Z,1012.8
2023-05-18T02:11:00.761Z,1012.8
2023-05-18T02:12:16.901Z,1012.8
2023-05-18T02:13:33.024Z,1012.8
2023-05-18T02:14:49.166Z,1012.8
2023-05-18T02:16:05.306Z,1012.8
2023-05-18T02:17:21.448Z,1012.8
2023-05-18T02:18:37.584Z,1012.8
2023-05-18T02:19:53.711Z,1012.8
2023-05-18T02:21:09.847Z,1012.8
2023-05-18T02:22:25.978Z,1012.8
2023-05-18T02:23:42.139Z,1012.8
2023-05-18T02:24:58.265Z,1012.8
2023-05-18T02:26:14.391Z,1012.8
2023-05-18T02:27:30.521Z,1012.8
2023-05-18T02:28:46.673Z,1012.8
2023-05-18T02:30:02.815Z,1012.8
2023-05-18T02:31:19.011Z,1012.8
2023-05-18T02:32:34.266Z,1012.8
2023-05-18T02:33:50.451Z,1012.8
2023-05-18T02:35:05.665Z,1012.8
2023-05-18T02:36:21.805Z,1012.8
2023-05-18T02:37:37.928Z,1012.7
2023-05-18T02:38:54.062Z,1012.8
2023-05-18T02:40:10.209Z,1012.8
2023-05-18T02:41:26.341Z,1012.7
2023-05-18T02:42:42.480Z,1012.7
2023-05-18T02:43:58.604Z,1012.8
2023-05-18T02:45:14.748Z,1012.8
2023-05-18T02:46:30.891Z,1012.8
2023-05-18T02:47:47.033Z,1012.8
2023-05-18T02:49:03.156Z,1012.8
2023-05-18T02:50:19.303Z,1012.8
2023-05-18T02:51:35.437Z,1012.8
2023-05-18T02:52:51.585Z,1012.8
2023-05-18T02:54:07.718Z,1012.8
2023-05-18T02:55:23.841Z,1012.8
2023-05-18T02:56:39.972Z,1012.8
2023-05-18T02:57:56.104Z,1012.8
2023-05-18T02:59:12.259Z,1012.8
2023-05-18T03:00:28.388Z,1012.8
2023-05-18T03:01:44.521Z,1012.8
2023-05-18T03:03:00.655Z,1012.8
2023-05-18T03:04:16.789Z,1012.8
2023-05-18T03:05:32.952Z,1012.8
2023-05-18T03:06:49.141Z,1012.8
2023-05-18T03:08:04.384Z,1012.8
2023-05-18T03:09:19.574Z,1012.9
2023-05-18T03:10:35.711Z,1012.8
2023-05-18T03:11:51.840Z,1012.8
2023-05-18T03:13:07.974Z,1012.8
2023-05-18T03:14:24.119Z,1012.8
2023-05-18T03:15:40.258Z,1012.8
2023-05-18T03:16:56.391Z,1012.8
2023-05-18T03:18:12.537Z,1012.8
2023-05-18T03:19:28.660Z,1012.8
2023-05-18T03:20:44.805Z,1012.8
2023-05-18T03:22:00.936Z,1012.8
2023-05-18T03:23:17.070Z,1012.8
2023-05-18T03:24:33.210Z,1012.8
2023-05-18T03:25:49.355Z,1012.8
2023-05-18T03:27:05.483Z,1012.8
2023-05-18T03:28:21.623Z,1012.8
2023-05-18T03:29:37.762Z,1012.8
2023-05-18T03:30:53.892Z,1012.8
2023-05-18T03:32:10.035Z,1012.8
2023-05-18T03:33:26.161Z,1012.8
2023-05-18T03:34:42.317Z,1012.8
2023-05-18T03:35:58.440Z,1012.8
2023-05-18T03:37:14.576Z,1012.8
2023-05-18T03:38:30.701Z,1012.8
2023-05-18T03:39:46.855Z,1012.8
2023-05-18T03:41:03.060Z,1012.8
2023-05-18T03:42:18.285Z,1012.9
2023-05-18T03:43:33.493Z,1012.8
2023-05-18T03:44:49.649Z,1012.9
2023-05-18T03:46:05.773Z,1012.9
2023-05-18T03:47:21.916Z,1012.8
2023-05-18T03:48:38.047Z,1012.9
2023-05-18T03:49:54.168Z,1012.9
2023-05-18T03:51:10.316Z,1012.8
2023-05-18T03:52:26.460Z,1012.9
2023-05-18T03:53:42.590Z,1012.9
2023-05-18T03:54:58.723Z,1012.9
2023-05-18T03:56:14.853Z,1012.9
2023-05-18T03:57:31.015Z,1012.9
2023-05-18T03:58:47.132Z,1012.9
2023-05-18T04:00:03.272Z,1012.9
2023-05-18T04:01:19.414Z,1012.9
2023-05-18T04:02:35.542Z,1013
2023-05-18T04:03:51.681Z,1012.9
2023-05-18T04:05:07.827Z,1013
2023-05-18T04:06:23.956Z,1013
2023-05-18T04:07:40.083Z,1013
2023-05-18T04:08:56.218Z,1013
2023-05-18T04:10:12.376Z,1013
2023-05-18T04:11:28.506Z,1013
2023-05-18T04:12:44.633Z,1013
2023-05-18T04:14:00.779Z,1013
2023-05-18T04:15:16.968Z,1013
2023-05-18T04:16:32.201Z,1013
2023-05-18T04:17:48.395Z,1013
2023-05-18T04:19:03.604Z,1013
2023-05-18T04:20:19.737Z,1013
2023-05-18T04:21:35.879Z,1013
2023-05-18T04:22:52.005Z,1013
2023-05-18T04:24:08.157Z,1013
2023-05-18T04:25:24.275Z,1013
2023-05-18T04:26:40.430Z,1013
2023-05-18T04:27:56.567Z,1013.1
2023-05-18T04:29:12.691Z,1013.1
2023-05-18T04:30:28.829Z,1013.1
2023-05-18T04:31:44.963Z,1013.1
2023-05-18T04:33:01.118Z,1013.1
2023-05-18T04:34:17.240Z,1013.1
2023-05-18T04:35:33.384Z,1013.1
2023-05-18T04:36:49.520Z,1013.1
2023-05-18T04:38:05.647Z,1013.1
2023-05-18T04:39:21.792Z,1013.1
2023-05-18T04:40:37.933Z,1013.2
2023-05-18T04:41:54.061Z,1013.2
2023-05-18T04:43:10.201Z,1013.2
2023-05-18T04:44:26.336Z,1013.2
2023-05-18T04:45:42.471Z,1013.2
2023-05-18T04:46:58.611Z,1013.2
2023-05-18T04:48:14.743Z,1013.2
2023-05-18T04:49:30.869Z,1013.3
2023-05-18T04:50:47.063Z,1013.3
2023-05-18T04:52:02.307Z,1013.3
2023-05-18T04:53:17.525Z,1013.3
2023-05-18T04:54:33.655Z,1013.3
2023-05-18T04:55:49.803Z,1013.3
2023-05-18T04:57:05.933Z,1013.3
2023-05-18T04:58:22.072Z,1013.3
2023-05-18T04:59:38.195Z,1013.3
2023-05-18T05:00:54.341Z,1013.3
2023-05-18T05:02:10.476Z,1013.3
2023-05-18T05:03:26.620Z,1013.3
2023-05-18T05:04:42.743Z,1013.3
2023-05-18T05:05:58.874Z,1013.3
2023-05-18T05:07:15.021Z,1013.3
2023-05-18T05:08:31.155Z,1013.3
2023-05-18T05:09:47.287Z,1013.3
2023-05-18T05:11:03.437Z,1013.3
2023-05-18T05:12:19.572Z,1013.4
2023-05-18T05:13:35.702Z,1013.4
2023-05-18T05:14:51.838Z,1013.4
2023-05-18T05:16:07.986Z,1013.4
2023-05-18T05:17:24.111Z,1013.4
2023-05-18T05:18:40.253Z,1013.3
2023-05-18T05:19:56.383Z,1013.4
2023-05-18T05:21:12.527Z,1013.4
2023-05-18T05:22:28.656Z,1013.4
2023-05-18T05:23:44.789Z,1013.4
2023-05-18T05:25:00.981Z,1013.4
2023-05-18T05:26:16.213Z,1013.4
2023-05-18T05:27:31.424Z,1013.4
2023-05-18T05:28:46.570Z,1013.4
2023-05-18T05:30:02.725Z,1013.4
2023-05-18T05:31:18.849Z,1013.4
2023-05-18T05:32:34.996Z,1013.4
2023-05-18T05:33:51.133Z,1013.5
2023-05-18T05:35:07.261Z,1013.5
2023-05-18T05:36:23.395Z,1013.5
2023-05-18T05:37:39.533Z,1013.5
2023-05-18T05:38:55.672Z,1013.5
2023-05-18T05:40:11.803Z,1013.5
2023-05-18T05:41:27.945Z,1013.4
2023-05-18T05:42:44.083Z,1013.4
2023-05-18T05:44:00.210Z,1013.4
2023-05-18T05:45:16.346Z,1013.4
2023-05-18T05:46:32.472Z,1013.4
2023-05-18T05:47:48.605Z,1013.4
2023-05-18T05:49:04.756Z,1013.4
2023-05-18T05:50:20.899Z,1013.3
2023-05-18T05:51:37.029Z,1013.3
2023-05-18T05:52:53.159Z,1013.3
2023-05-18T05:54:09.285Z,1013.3
2023-05-18T05:55:25.437Z,1013.4
2023-05-18T05:56:41.579Z,1013.3
2023-05-18T05:57:57.713Z,1013.3
2023-05-18T05:59:13.843Z,1013.4
2023-05-18T06:00:29.968Z,1013.4
2023-05-18T06:01:46.121Z,1013.4
2023-05-18T06:03:02.260Z,1013.4
2023-05-18T06:04:18.381Z,1013.4
2023-05-18T06:05:34.515Z,1013.4
2023-05-18T06:06:50.652Z,1013.4
2023-05-18T06:08:06.801Z,1013.4
2023-05-18T06:09:22.930Z,1013.5
2023-05-18T06:10:39.059Z,1013.5
2023-05-18T06:11:55.190Z,1013.5
2023-05-18T06:13:11.336Z,1013.5
2023-05-18T06:14:27.472Z,1013.5
2023-05-18T06:15:43.676Z,1013.5
2023-05-18T06:16:58.905Z,1013.4
2023-05-18T06:18:14.123Z,1013.4
2023-05-18T06:19:30.255Z,1013.4
2023-05-18T06:20:46.388Z,1013.4
2023-05-18T06:22:02.508Z,1013.4
2023-05-18T06:23:18.645Z,1013.4
2023-05-18T06:24:34.799Z,1013.4
2023-05-18T06:25:50.931Z,1013.4
2023-05-18T06:27:07.057Z,1013.4
2023-05-18T06:28:23.192Z,1013.5
2023-05-18T06:29:39.332Z,1013.4
2023-05-18T06:30:55.471Z,1013.5
2023-05-18T06:32:11.611Z,1013.5
2023-05-18T06:33:27.743Z,1013.5
2023-05-18T06:34:43.871Z,1013.5
2023-05-18T06:36:00.005Z,1013.5
2023-05-18T06:37:16.163Z,1013.5
2023-05-18T06:38:32.302Z,1013.5
2023-05-18T06:39:48.433Z,1013.5
2023-05-18T06:41:04.565Z,1013.5
2023-05-18T06:42:20.693Z,1013.6
2023-05-18T06:43:36.831Z,1013.5
2023-05-18T06:44:52.983Z,1013.6
2023-05-18T06:46:09.114Z,1013.6
2023-05-18T06:47:25.241Z,1013.6
2023-05-18T06:48:41.375Z,1013.6
2023-05-18T06:49:57.581Z,1013.6
2023-05-18T06:51:12.832Z,1013.6
2023-05-18T06:52:29.027Z,1013.6
2023-05-18T06:53:44.239Z,1013.6
2023-05-18T06:55:00.369Z,1013.6
2023-05-18T06:56:16.503Z,1013.6
2023-05-18T06:57:32.649Z,1013.6
2023-05-18T06:58:48.775Z,1013.6
2023-05-18T07:00:04.929Z,1013.6
2023-05-18T07:01:21.046Z,1013.6
2023-05-18T07:02:37.187Z,1013.6
2023-05-18T07:03:53.311Z,1013.6
2023-05-18T07:05:09.457Z,1013.6
2023-05-18T07:06:25.603Z,1013.6
2023-05-18T07:07:41.735Z,1013.6
2023-05-18T07:08:57.875Z,1013.6
2023-05-18T07:10:14.007Z,1013.7
2023-05-18T07:11:30.136Z,1013.6
2023-05-18T07:12:46.274Z,1013.6
2023-05-18T07:14:02.406Z,1013.6
2023-05-18T07:15:18.555Z,1013.6
2023-05-18T07:16:34.690Z,1013.6
2023-05-18T07:17:50.805Z,1013.6
2023-05-18T07:19:06.962Z,1013.6
2023-05-18T07:20:23.097Z,1013.6
2023-05-18T07:21:39.221Z,1013.6
2023-05-18T07:22:55.362Z,1013.6
2023-05-18T07:24:11.491Z,1013.6
2023-05-18T07:25:27.712Z,1013.6
2023-05-18T07:26:42.933Z,1013.6
2023-05-18T07:27:58.140Z,1013.5
2023-05-18T07:29:14.294Z,1013.5
2023-05-18T07:30:30.433Z,1013.6
2023-05-18T07:31:46.563Z,1013.6
2023-05-18T07:33:02.688Z,1013.5
2023-05-18T07:34:18.818Z,1013.5
2023-05-18T07:35:34.965Z,1013.5
2023-05-18T07:36:51.102Z,1013.6
2023-05-18T07:38:07.231Z,1013.6
2023-05-18T07:39:23.373Z,1013.5
2023-05-18T07:40:39.517Z,1013.5
2023-05-18T07:41:55.650Z,1013.5
2023-05-18T07:43:11.798Z,1013.5
2023-05-18T07:44:27.915Z,1013.5
2023-05-18T07:45:44.046Z,1013.6
2023-05-18T07:47:00.191Z,1013.5
2023-05-18T07:48:16.330Z,1013.6
2023-05-18T07:49:32.460Z,1013.6
2023-05-18T07:50:48.602Z,1013.6
2023-05-18T07:52:04.735Z,1013.6
2023-05-18T07:53:20.872Z,1013.5
2023-05-18T07:54:37.016Z,1013.6
2023-05-18T07:55:53.144Z,1013.5
2023-05-18T07:57:09.283Z,1013.5
2023-05-18T07:58:25.422Z,1013.5
2023-05-18T07:59:41.617Z,1013.6
2023-05-18T08:00:56.849Z,1013.6
2023-05-18T08:02:12.065Z,1013.6
2023-05-18T08:03:28.196Z,1013.6
2023-05-18T08:04:44.346Z,1013.6
2023-05-18T08:06:00.478Z,1013.6
2023-05-18T08:07:16.617Z,1013.5
2023-05-18T08:08:32.740Z,1013.5
2023-05-18T08:09:48.882Z,1013.5
2023-05-18T08:11:05.014Z,1013.5
2023-05-18T08:12:21.162Z,1013.5
2023-05-18T08:13:37.294Z,1013.5
2023-05-18T08:14:53.421Z,1013.5
2023-05-18T08:16:09.552Z,1013.5
2023-05-18T08:17:25.712Z,1013.6
2023-05-18T08:18:41.851Z,1013.6
2023-05-18T08:19:57.977Z,1013.6
2023-05-18T08:21:14.108Z,1013.6
2023-05-18T08:22:30.238Z,1013.5
2023-05-18T08:23:46.383Z,1013.5
2023-05-18T08:25:02.528Z,1013.6
2023-05-18T08:26:18.653Z,1013.6
2023-05-18T08:27:34.802Z,1013.6
2023-05-18T08:28:50.929Z,1013.5
2023-05-18T08:30:07.070Z,1013.5
2023-05-18T08:31:23.200Z,1013.5
2023-05-18T08:32:39.349Z,1013.5
2023-05-18T08:33:55.545Z,1013.5
2023-05-18T08:35:10.784Z,1013.5
2023-05-18T08:36:26.963Z,1013.5
2023-05-18T08:37:42.176Z,1013.5
2023-05-18T08:38:58.317Z,1013.5
2023-05-18T08:40:14.454Z,1013.5
2023-05-18T08:41:30.590Z,1013.5
2023-05-18T08:42:46.724Z,1013.5
2023-05-18T08:44:02.850Z,1013.5
2023-05-18T08:45:18.999Z,1013.5
2023-05-18T08:46:35.138Z,1013.4
2023-05-18T08:47:51.281Z,1013.4
2023-05-18T08:49:07.418Z,1013.4
2023-05-18T08:50:23.540Z,1013.3
2023-05-18T08:51:39.685Z,1013.4
2023-05-18T08:52:55.814Z,1013.3
2023-05-18T08:54:11.960Z,1013.3
2023-05-18T08:55:28.097Z,1013.3
2023-05-18T08:56:44.230Z,1013.3
2023-05-18T08:58:00.362Z,1013.3
2023-05-18T08:59:16.512Z,1013.3
2023-05-18T09:00:32.632Z,1013.3
2023-05-18T09:01:48.786Z,1013.3
2023-05-18T09:03:04.913Z,1013.3
2023-05-18T09:04:21.039Z,1013.3
2023-05-18T09:05:37.182Z,1013.3
2023-05-18T09:06:53.317Z,1013.3
2023-05-18T09:08:09.462Z,1013.3
2023-05-18T09:09:25.652Z,1013.3
2023-05-18T09:10:40.897Z,1013.3
2023-05-18T09:11:56.093Z,1013.3
2023-05-18T09:13:11.249Z,1013.3
2023-05-18T09:14:27.392Z,1013.3
2023-05-18T09:15:43.542Z,1013.3
2023-05-18T09:16:59.675Z,1013.3
2023-05-18T09:18:15.793Z,1013.3
2023-05-18T09:19:31.942Z,1013.3
2023-05-18T09:20:48.088Z,1013.3
2023-05-18T09:22:04.217Z,1013.2
2023-05-18T09:23:20.345Z,1013.2
2023-05-18T09:24:36.479Z,1013.2
2023-05-18T09:25:52.629Z,1013.2
2023-05-18T09:27:08.773Z,1013.2
2023-05-18T09:28:24.908Z,1013.1
2023-05-18T09:29:41.046Z,1013.1
2023-05-18T09:30:57.171Z,1013.1
2023-05-18T09:32:13.313Z,1013.1
2023-05-18T09:33:29.454Z,1013.1
2023-05-18T09:34:45.593Z,1013.1
2023-05-18T09:36:01.729Z,1013.1
2023-05-18T09:37:17.860Z,1013.2
2023-05-18T09:38:34.001Z,1013.2
2023-05-18T09:39:50.145Z,1013.1
2023-05-18T09:41:06.277Z,1013.1
2023-05-18T09:42:22.409Z,1013.1
2023-05-18T09:43:38.542Z,1013.1
2023-05-18T09:44:54.683Z,1013.1
2023-05-18T09:46:10.835Z,1013.2
2023-05-18T09:47:26.963Z,1013.1
2023-05-18T09:48:43.093Z,1013.2
2023-05-18T09:49:59.229Z,1013.1
2023-05-18T09:51:15.366Z,1013.1
2023-05-18T09:52:31.506Z,1013.1
2023-05-18T09:53:47.646Z,1013.1
2023-05-18T09:55:03.783Z,1013.1
2023-05-18T09:56:19.916Z,1013.1
2023-05-18T09:57:36.050Z,1013
2023-05-18T09:58:52.195Z,1013.1
2023-05-18T10:00:08.384Z,1013.1
2023-05-18T10:01:23.628Z,1013.1
2023-05-18T10:02:38.823Z,1013.1
2023-05-18T10:03:54.970Z,1013
2023-05-18T10:05:11.100Z,1013
2023-05-18T10:06:27.235Z,1013
2023-05-18T10:07:43.364Z,1013
2023-05-18T10:08:59.524Z,1013
2023-05-18T10:10:15.659Z,1013
2023-05-18T10:11:31.790Z,1013
2023-05-18T10:12:47.922Z,1013
2023-05-18T10:14:04.000Z,1013
2023-05-18T10:15:20.200Z,1012.9
2023-05-18T10:16:36.327Z,1012.9
2023-05-18T10:17:52.473Z,1012.9
2023-05-18T10:19:08.600Z,1013
2023-05-18T10:20:24.725Z,1012.9
2023-05-18T10:21:40.889Z,1013
2023-05-18T10:22:57.020Z,1012.9
2023-05-18T10:24:13.144Z,1012.9
2023-05-18T10:25:29.287Z,1013
2023-05-18T10:26:45.415Z,1012.9
2023-05-18T10:28:01.569Z,1012.9
2023-05-18T10:29:17.700Z,1012.9
2023-05-18T10:30:33.831Z,1012.9
2023-05-18T10:31:49.961Z,1013
2023-05-18T10:33:06.099Z,1013
2023-05-18T10:34:22.314Z,1013
2023-05-18T10:35:37.541Z,1013
2023-05-18T10:36:52.753Z,1012.9
2023-05-18T10:38:08.889Z,1012.9
2023-05-18T10:39:25.024Z,1012.9
2023-05-18T10:40:41.162Z,1012.9
2023-05-18T10:41:57.305Z,1012.9
2023-05-18T10:43:13.424Z,1012.9
2023-05-18T10:44:29.586Z,1012.9
2023-05-18T10:45:45.717Z,1012.9
2023-05-18T10:47:01.846Z,1012.8
2023-05-18T10:48:17.974Z,1012.8
2023-05-18T10:49:34.116Z,1012.9
2023-05-18T10:50:50.261Z,1012.8
2023-05-18T10:52:06.399Z,1012.8
2023-05-18T10:53:22.533Z,1012.8
2023-05-18T10:54:38.664Z,1012.8
2023-05-18T10:55:54.784Z,1012.8
2023-05-18T10:57:10.947Z,1012.8
2023-05-18T10:58:27.081Z,1012.7
2023-05-18T10:59:43.206Z,1012.7
2023-05-18T11:00:59.346Z,1012.7
2023-05-18T11:02:15.484Z,1012.7
2023-05-18T11:03:31.619Z,1012.7
2023-05-18T11:04:47.756Z,1012.8
2023-05-18T11:06:03.891Z,1012.7
2023-05-18T11:07:20.021Z,1012.7
2023-05-18T11:08:36.225Z,1012.7
2023-05-18T11:09:51.482Z,1012.7
2023-05-18T11:11:07.657Z,1012.7
2023-05-18T11:12:22.883Z,1012.8
2023-05-18T11:13:39.011Z,1012.8
2023-05-18T11:14:55.155Z,1012.8
2023-05-18T11:16:11.293Z,1012.8
2023-05-18T11:17:27.410Z,1012.8
2023-05-18T11:18:43.560Z,1012.8
2023-05-18T11:19:59.698Z,1012.8
2023-05-18T11:21:15.830Z,1012.8
2023-05-18T11:22:31.972Z,1012.8
2023-05-18T11:23:48.088Z,1012.8
2023-05-18T11:25:04.233Z,1012.7
2023-05-18T11:26:20.387Z,1012.7
2023-05-18T11:27:36.507Z,1012.7
2023-05-18T11:28:52.645Z,1012.7
2023-05-18T11:30:08.770Z,1012.7
2023-05-18T11:31:24.900Z,1012.7
2023-05-18T11:32:41.064Z,1012.7
2023-05-18T11:33:57.197Z,1012.7
2023-05-18T11:35:13.332Z,1012.7
2023-05-18T11:36:29.463Z,1012.7
2023-05-18T11:37:45.592Z,1012.7
2023-05-18T11:39:01.741Z,1012.7
2023-05-18T11:40:17.871Z,1012.7
2023-05-18T11:41:34.006Z,1012.7
2023-05-18T11:42:50.144Z,1012.6
2023-05-18T11:44:06.334Z,1012.6
2023-05-18T11:45:21.557Z,1012.6
2023-05-18T11:46:36.767Z,1012.6
2023-05-18T11:47:52.897Z,1012.6
2023-05-18T11:49:09.049Z,1012.7
2023-05-18T11:50:25.178Z,1012.6
2023-05-18T11:51:41.319Z,1012.7
2023-05-18T11:52:57.460Z,1012.6
2023-05-18T11:54:13.589Z,1012.6
2023-05-18T11:55:29.737Z,1012.6
2023-05-18T11:56:45.882Z,1012.6
2023-05-18T11:58:02.012Z,1012.5
2023-05-18T11:59:18.142Z,1012.6
2023-05-18T12:00:34.274Z,1012.6
2023-05-18T12:01:50.421Z,1012.6
2023-05-18T12:03:06.557Z,1012.5
2023-05-18T12:04:22.693Z,1012.5
2023-05-18T12:05:38.830Z,1012.5
2023-05-18T12:06:54.963Z,1012.5
2023-05-18T12:08:11.103Z,1012.5
2023-05-18T12:09:27.246Z,1012.5
2023-05-18T12:10:43.368Z,1012.5
2023-05-18T12:11:59.502Z,1012.5
2023-05-18T12:13:15.628Z,1012.5
2023-05-18T12:14:31.789Z,1012.5
2023-05-18T12:15:47.927Z,1012.4
2023-05-18T12:17:04.049Z,1012.5
2023-05-18T12:18:20.237Z,1012.5
2023-05-18T12:19:35.481Z,1012.5
2023-05-18T12:20:50.684Z,1012.4
2023-05-18T12:22:05.846Z,1012.4
2023-05-18T12:23:22.000Z,1012.4
2023-05-18T12:24:38.134Z,1012.4
2023-05-18T12:25:54.249Z,1012.4
2023-05-18T12:27:10.397Z,1012.5
2023-05-18T12:28:26.522Z,1012.5
2023-05-18T12:29:42.676Z,1012.5
2023-05-18T12:30:58.815Z,1012.5
2023-05-18T12:32:14.936Z,1012.5
2023-05-18T12:33:31.063Z,1012.5
2023-05-18T12:34:47.199Z,1012.4
2023-05-18T12:36:03.362Z,1012.4
2023-05-18T12:37:19.484Z,1012.4
2023-05-18T12:38:35.626Z,1012.4
2023-05-18T12:39:51.745Z,1012.4
2023-05-18T12:41:07.881Z,1012.4
2023-05-18T12:42:24.036Z,1012.4
2023-05-18T12:43:40.163Z,1012.4
2023-05-18T12:44:56.313Z,1012.4
2023-05-18T12:46:12.436Z,1012.4
2023-05-18T12:47:28.563Z,1012.4
2023-05-18T12:48:44.713Z,1012.3
2023-05-18T12:50:00.853Z,1012.4
2023-05-18T12:51:16.981Z,1012.4
2023-05-18T12:52:33.111Z,1012.3
2023-05-18T12:53:49.256Z,1012.4
2023-05-18T12:55:05.396Z,1012.3
2023-05-18T12:56:21.541Z,1012.3
2023-05-18T12:57:37.662Z,1012.4
2023-05-18T12:58:53.795Z,1012.3
2023-05-18T13:00:09.940Z,1012.3
2023-05-18T13:01:26.091Z,1012.4
2023-05-18T13:02:42.221Z,1012.4
2023-05-18T13:03:58.357Z,1012.3
2023-05-18T13:05:14.487Z,1012.3
2023-05-18T13:06:30.623Z,1012.3
2023-05-18T13:07:46.765Z,1012.3
2023-05-18T13:09:02.958Z,1012.3
2023-05-18T13:10:18.194Z,1012.3
2023-05-18T13:11:33.393Z,1012.3
2023-05-18T13:12:49.525Z,1012.3
2023-05-18T13:14:05.673Z,1012.3
2023-05-18T13:15:21.796Z,1012.3
2023-05-18T13:16:37.929Z,1012.3
2023-05-18T13:17:54.000Z,1012.3
2023-05-18T13:19:10.222Z,1012.3
2023-05-18T13:20:26.345Z,1012.3
2023-05-18T13:21:42.489Z,1012.3
2023-05-18T13:22:58.618Z,1012.3
2023-05-18T13:24:14.769Z,1012.3
2023-05-18T13:25:30.902Z,1012.2
2023-05-18T13:26:47.036Z,1012.3
2023-05-18T13:28:03.158Z,1012.2
2023-05-18T13:29:19.293Z,1012.2
2023-05-18T13:30:35.435Z,1012.2
2023-05-18T13:31:51.575Z,1012.2
2023-05-18T13:33:07.708Z,1012.2
2023-05-18T13:34:23.839Z,1012.2
2023-05-18T13:35:39.979Z,1012.2
2023-05-18T13:36:56.125Z,1012.2
2023-05-18T13:38:12.266Z,1012.1
2023-05-18T13:39:28.401Z,1012.1
2023-05-18T13:40:44.532Z,1012.1
2023-05-18T13:42:00.668Z,1012.1
2023-05-18T13:43:16.873Z,1012.1
2023-05-18T13:44:32.113Z,1012.1
2023-05-18T13:45:48.285Z,1012
2023-05-18T13:47:03.501Z,1012
2023-05-18T13:48:19.632Z,1012
2023-05-18T13:49:35.769Z,1012
2023-05-18T13:50:51.897Z,1012
2023-05-18T13:52:08.027Z,1012
2023-05-18T13:53:24.175Z,1012
2023-05-18T13:54:40.317Z,1012
2023-05-18T13:55:56.445Z,1012
2023-05-18T13:57:12.583Z,1011.9
2023-05-18T13:58:28.713Z,1012
2023-05-18T13:59:44.863Z,1011.9
2023-05-18T14:01:00.999Z,1011.9
2023-05-18T14:02:17.136Z,1011.9
2023-05-18T14:03:33.258Z,1012
2023-05-18T14:04:49.403Z,1011.9
2023-05-18T14:06:05.546Z,1011.9
2023-05-18T14:07:21.696Z,1012
2023-05-18T14:08:37.816Z,1012
2023-05-18T14:09:53.948Z,1011.9
2023-05-18T14:11:10.076Z,1011.9
2023-05-18T14:12:26.216Z,1011.9
2023-05-18T14:13:42.363Z,1011.9
2023-05-18T14:14:58.481Z,1011.9
2023-05-18T14:16:14.613Z,1011.9
2023-05-18T14:17:30.746Z,1011.9
2023-05-18T14:20:03.145Z,1011.8
2023-05-18T14:21:19.439Z,1011.8
2023-05-18T14:22:34.588Z,1011.8
2023-05-18T14:23:50.724Z,1011.8
2023-05-18T14:25:06.868Z,1011.8
2023-05-18T14:26:22.991Z,1011.7
2023-05-18T14:27:39.128Z,1011.7
2023-05-18T14:28:55.261Z,1011.7
2023-05-18T14:30:11.414Z,1011.7
2023-05-18T14:31:27.544Z,1011.7
2023-05-18T14:32:43.685Z,1011.7
2023-05-18T14:33:59.804Z,1011.8
2023-05-18T14:35:15.942Z,1011.7
2023-05-18T14:36:32.099Z,1011.8
2023-05-18T14:37:48.223Z,1011.8
2023-05-18T14:39:04.367Z,1011.8
2023-05-18T14:40:20.487Z,1011.8
2023-05-18T14:41:36.619Z,1011.8
2023-05-18T14:42:52.785Z,1011.8
2023-05-18T14:44:08.917Z,1011.8
2023-05-18T14:45:25.040Z,1011.7
2023-05-18T14:46:41.177Z,1011.7
2023-05-18T14:47:57.320Z,1011.7
2023-05-18T14:49:13.455Z,1011.8
2023-05-18T14:50:29.596Z,1011.8
2023-05-18T14:51:45.725Z,1011.7
2023-05-18T14:53:01.859Z,1011.7
2023-05-18T14:54:17.988Z,1011.7
2023-05-18T14:55:34.134Z,1011.7
2023-05-18T14:56:50.269Z,1011.7
2023-05-18T14:58:06.411Z,1011.7
2023-05-18T14:59:22.537Z,1011.6
2023-05-18T15:00:38.664Z,1011.7
2023-05-18T15:01:54.826Z,1011.7
2023-05-18T15:03:10.961Z,1011.7
2023-05-18T15:04:27.082Z,1011.7
2023-05-18T15:05:43.227Z,1011.6
2023-05-18T15:06:59.346Z,1011.7
2023-05-18T15:08:15.496Z,1011.7
2023-05-18T15:09:31.699Z,1011.7
2023-05-18T15:10:46.925Z,1011.7
2023-05-18T15:12:02.149Z,1011.6
2023-05-18T15:13:18.279Z,1011.7
2023-05-18T15:14:34.398Z,1011.6
2023-05-18T15:15:50.544Z,1011.6
2023-05-18T15:17:06.675Z,1011.6
2023-05-18T15:18:22.830Z,1011.6
2023-05-18T15:19:38.955Z,1011.6
2023-05-18T15:20:55.081Z,1011.6
2023-05-18T15:22:11.226Z,1011.6
2023-05-18T15:23:27.345Z,1011.6
2023-05-18T15:24:43.505Z,1011.6
2023-05-18T15:25:59.639Z,1011.6
2023-05-18T15:27:15.767Z,1011.6
2023-05-18T15:28:31.909Z,1011.6
2023-05-18T15:29:48.032Z,1011.6
2023-05-18T15:31:04.187Z,1011.6
2023-05-18T15:32:20.317Z,1011.6
2023-05-18T15:33:36.444Z,1011.6
2023-05-18T15:34:52.588Z,1011.6
2023-05-18T15:36:08.706Z,1011.6
2023-05-18T15:37:24.860Z,1011.6
2023-05-18T15:38:41.000Z,1011.6
2023-05-18T15:39:57.126Z,1011.6
2023-05-18T15:41:13.267Z,1011.6
2023-05-18T15:42:29.400Z,1011.6
2023-05-18T15:43:45.594Z,1011.6
2023-05-18T15:45:00.855Z,1011.6
2023-05-18T15:46:16.066Z,1011.7
2023-05-18T15:47:32.216Z,1011.6
2023-05-18T15:48:48.352Z,1011.6
2023-05-18T15:50:04.480Z,1011.6
2023-05-18T15:51:20.617Z,1011.6
2023-05-18T15:52:36.753Z,1011.6
2023-05-18T15:53:52.898Z,1011.6